Terminal Aerodrome Forecast
Issued by NWS

Home | Current Version | Previous Version | Text Only | Print | Product List | Glossary On
Versions: 1 2 3 4 5 6 7 8 9 10 11 12 13 14 15 16 17 18 19 20 21 22 23 24 25 26 27 28 29
000
FTUS43 KGRB 120900 AAA
TAFRHI
TAF AMD
KRHI 120927Z 1209/1306 22005KT P6SM SCT025 BKN040
      TEMPO 1210/1213 3SM BR SCT005 BKN010
     FM121400 25007KT P6SM VCSH BKN035 BKN060 PROB30 1221/1224 5SM
      TSRA OVC020CB
     FM130100 27004KT P6SM BKN080=

USA.gov is the U.S. government's official web portal to all federal, state and local government web resources and services.